This is the latest recevied weather packets stored in our database for station/object IZ7EXI-13. If no packets are shown the sender has not sent any weather packets the latest 10 day(s).
| Time | Temp. | Humidity | Pressure | Rain* | Wind** | Luminosity | Snow |
|---|---|---|---|---|---|---|---|
| 1777295173 | 24.44° C | 40% | 1019.6 hPa | - | - | - | - |
| 1777294300 | 25° C | 36% | 1019.8 hPa | - | - | - | - |
| 1777294273 | 25° C | 36% | 1019.8 hPa | - | - | - | - |
| 1777293407 | 25° C | 38% | 1020 hPa | - | - | - | - |
| 1777293372 | 25° C | 38% | 1020 hPa | - | - | - | - |
| 1777292494 | 25.56° C | 39% | 1020.2 hPa | - | - | - | - |
| 1777292471 | 25.56° C | 39% | 1020.2 hPa | - | - | - | - |
| 1777291571 | 25° C | 39% | 1020.2 hPa | - | - | - | - |
| 1777290671 | 25° C | 37% | 1020.4 hPa | - | - | - | - |
| 1777289771 | 25.56° C | 35% | 1020.5 hPa | - | - | - | - |
| 1777288870 | 25.56° C | 32% | 1020.5 hPa | - | - | - | - |
| 1777287970 | 25.56° C | 31% | 1020.5 hPa | - | - | - | - |
| 1777287101 | 25° C | 31% | 1020.6 hPa | - | - | - | - |
| 1777287070 | 25° C | 31% | 1020.6 hPa | - | - | - | - |
| 1777286170 | 23.89° C | 36% | 1020.7 hPa | - | - | - | - |
| 1777285297 | 22.22° C | 41% | 1020.9 hPa | - | - | - | - |
| 1777285269 | 22.22° C | 41% | 1020.9 hPa | - | - | - | - |
| 1777284369 | 21.11° C | 43% | 1021.1 hPa | - | - | - | - |
| 1777283501 | 20.56° C | 43% | 1021.3 hPa | - | - | - | - |
| 1777283469 | 20.56° C | 43% | 1021.3 hPa | - | - | - | - |
| 1777282569 | 21.11° C | 47% | 1021.5 hPa | - | - | - | - |
| 1777281694 | 21.67° C | 46% | 1021.5 hPa | - | - | - | - |
| 1777281668 | 21.67° C | 46% | 1021.5 hPa | - | - | - | - |
| 1777280768 | 21.67° C | 40% | 1021.6 hPa | - | - | - | - |
| 1777279868 | 21.11° C | 49% | 1021.6 hPa | - | - | - | - |
* Rain since midnight (hover to see other rain measurements)
** Current wind speed in m/s (hover to see current wind gust speed)